Schedule Details


Flight Number: CTN412
Departure: Kastela (LDSP) at 14:45
Arrival: Frankfurt/main (EDDF) at 16:35
Route: ZDA DCT BUSET DCT VEKEN DCT ERKIR UQ863 TEKSI/N0450F300 UQ863 ETASA T163 PSA

Weather Information
LDSP 251800Z 01003KT 330V110 9999 FEW050 29/14 Q1016 NOSIG
EDDF 251820Z 25004KT 9999 FEW070CB 27/14 Q1018 NOSIG
Schedule Frequency

Route Map